createdAt,value
2023-02-03T00:00:58.105Z,68.03
2023-02-03T00:03:47.121Z,71.20
2023-02-03T00:06:37.144Z,69.90
2023-02-03T00:09:20.055Z,69.95
2023-02-03T00:12:09.171Z,71.07
2023-02-03T00:14:58.057Z,69.63
2023-02-03T00:17:47.116Z,71.53
2023-02-03T00:20:29.529Z,71.35
2023-02-03T00:23:24.104Z,71.25
2023-02-03T00:26:13.767Z,68.15
2023-02-03T00:29:03.225Z,70.50
2023-02-03T00:31:51.501Z,67.75
2023-02-03T00:34:38.096Z,68.57
2023-02-03T00:37:26.485Z,69.50
2023-02-03T00:40:10.178Z,71.13
2023-02-03T00:42:58.447Z,72.50
2023-02-03T00:45:41.244Z,70.70
2023-02-03T00:48:29.465Z,72.50
2023-02-03T00:51:12.124Z,70.50
2023-02-03T00:53:54.457Z,69.18
2023-02-03T00:56:45.114Z,68.63
2023-02-03T00:59:27.399Z,72.25
2023-02-03T01:02:16.264Z,71.65
2023-02-03T01:05:07.429Z,72.72
2023-02-03T01:07:51.229Z,72.20
2023-02-03T01:10:40.463Z,71.20
2023-02-03T01:13:23.237Z,70.95
2023-02-03T01:16:14.458Z,71.78
2023-02-03T01:18:57.190Z,72.50
2023-02-03T01:21:47.881Z,71.00
2023-02-03T01:24:31.112Z,71.25
2023-02-03T01:27:13.496Z,73.78
2023-02-03T01:30:02.141Z,72.30
2023-02-03T01:32:44.467Z,71.75
2023-02-03T01:35:33.158Z,72.50
2023-02-03T01:38:22.375Z,71.55
2023-02-03T01:41:05.078Z,73.47
2023-02-03T01:43:57.501Z,72.45
2023-02-03T01:47:03.123Z,71.68
2023-02-03T01:50:01.121Z,73.05
2023-02-03T01:52:44.402Z,72.32
2023-02-03T01:55:42.104Z,75.57
2023-02-03T01:58:41.401Z,75.35
2023-02-03T02:01:30.175Z,78.25
2023-02-03T02:04:13.469Z,77.45
2023-02-03T02:07:07.084Z,79.90
2023-02-03T02:09:50.344Z,78.50
2023-02-03T02:12:39.101Z,83.00
2023-02-03T02:15:22.427Z,79.15
2023-02-03T02:18:30.105Z,80.20
2023-02-03T02:21:31.100Z,78.15
2023-02-03T02:24:23.111Z,76.70
2023-02-03T02:27:24.138Z,79.40
2023-02-03T02:30:56.265Z,80.18
2023-02-03T02:34:21.458Z,80.57
2023-02-03T02:37:17.105Z,81.38
2023-02-03T02:40:19.140Z,82.10
2023-02-03T02:43:18.379Z,79.07
2023-02-03T02:46:42.158Z,82.10
2023-02-03T02:49:42.354Z,84.22
2023-02-03T02:52:34.233Z,86.57
2023-02-03T02:55:29.412Z,84.72
2023-02-03T02:58:25.160Z,83.53
2023-02-03T03:01:07.420Z,92.20
2023-02-03T03:03:58.100Z,90.28
2023-02-03T03:06:58.070Z,91.00
2023-02-03T03:09:50.348Z,94.10
2023-02-03T03:12:45.072Z,92.90
2023-02-03T03:15:38.998Z,97.00
2023-02-03T03:18:28.101Z,99.30
2023-02-03T03:21:19.361Z,101.43
2023-02-03T03:24:05.126Z,103.18
2023-02-03T03:27:24.098Z,106.28
2023-02-03T03:30:19.455Z,100.15
2023-02-03T03:33:02.144Z,98.97
2023-02-03T03:36:04.758Z,100.82
2023-02-03T03:39:08.138Z,99.03
2023-02-03T03:42:10.457Z,92.90
2023-02-03T03:45:03.103Z,92.93
2023-02-03T03:47:55.163Z,98.07
2023-02-03T03:50:53.114Z,94.80
2023-02-03T03:53:38.565Z,98.07
2023-02-03T03:56:34.083Z,97.68
2023-02-03T03:59:28.345Z,96.75
2023-02-03T04:02:12.218Z,100.60
2023-02-03T04:04:55.641Z,99.53
2023-02-03T04:07:58.086Z,95.88
2023-02-03T04:10:42.867Z,92.95
2023-02-03T04:13:32.110Z,89.47
2023-02-03T04:16:21.536Z,83.00
2023-02-03T04:19:04.636Z,86.60
2023-02-03T04:21:54.135Z,89.60
2023-02-03T04:24:36.391Z,86.15
2023-02-03T04:27:25.200Z,76.95
2023-02-03T04:30:14.418Z,71.30
2023-02-03T04:32:57.076Z,69.63
2023-02-03T04:35:46.083Z,72.65
2023-02-03T04:38:28.408Z,70.43
2023-02-03T04:41:17.107Z,69.35
2023-02-03T04:43:59.511Z,70.22
2023-02-03T04:46:48.114Z,69.38
2023-02-03T04:49:31.422Z,71.00
2023-02-03T04:52:21.105Z,72.15
2023-02-03T04:55:12.119Z,70.00
2023-02-03T04:58:08.354Z,70.32
2023-02-03T05:00:50.145Z,68.72
2023-02-03T05:03:38.490Z,64.05
2023-02-03T05:06:21.149Z,67.03
2023-02-03T05:09:10.378Z,71.30
2023-02-03T05:11:52.058Z,65.95
2023-02-03T05:14:34.343Z,67.18
2023-02-03T05:17:23.154Z,65.15
2023-02-03T05:20:12.368Z,66.85
2023-02-03T05:22:55.065Z,66.03
2023-02-03T05:25:44.099Z,68.77
2023-02-03T05:28:26.374Z,68.07
2023-02-03T05:31:15.175Z,73.30
2023-02-03T05:33:57.359Z,71.32
2023-02-03T05:36:46.380Z,68.40
2023-02-03T05:39:28.535Z,68.45
2023-02-03T05:42:17.059Z,65.95
2023-02-03T05:44:59.526Z,62.10
2023-02-03T05:47:48.113Z,65.22
2023-02-03T05:50:35.303Z,61.33
2023-02-03T05:53:27.176Z,57.17
2023-02-03T05:56:09.547Z,58.75
2023-02-03T05:59:01.088Z,59.47
2023-02-03T06:01:50.011Z,57.10
2023-02-03T06:04:39.108Z,54.58
2023-02-03T06:07:28.081Z,53.38
2023-02-03T06:10:17.985Z,46.90
2023-02-03T06:13:07.111Z,43.55
2023-02-03T06:15:56.447Z,43.13
2023-02-03T06:18:39.071Z,42.38
2023-02-03T06:21:35.116Z,40.03
2023-02-03T06:24:17.295Z,33.72
2023-02-03T06:27:06.168Z,38.25
2023-02-03T06:29:48.292Z,36.97
2023-02-03T06:32:37.182Z,33.00
2023-02-03T06:35:20.142Z,33.88
2023-02-03T06:38:09.050Z,35.45
2023-02-03T06:40:51.712Z,42.28
2023-02-03T06:43:41.097Z,35.08
2023-02-03T06:46:31.245Z,38.28
2023-02-03T06:49:13.144Z,36.80
2023-02-03T06:52:01.370Z,37.97
2023-02-03T06:54:43.104Z,33.03
2023-02-03T06:57:31.384Z,39.58
2023-02-03T07:00:15.597Z,45.22
2023-02-03T07:03:00.843Z,41.00
2023-02-03T07:05:50.165Z,36.42
2023-02-03T07:08:39.324Z,34.70
2023-02-03T07:11:21.172Z,34.05
2023-02-03T07:14:10.362Z,32.20
2023-02-03T07:16:53.073Z,35.40
2023-02-03T07:19:42.059Z,34.75
2023-02-03T07:22:24.349Z,34.38
2023-02-03T07:25:13.053Z,33.75
2023-02-03T07:27:55.449Z,31.10
2023-02-03T07:30:44.122Z,28.80
2023-02-03T07:33:26.525Z,31.27
2023-02-03T07:36:16.050Z,28.00
2023-02-03T07:38:58.575Z,27.83
2023-02-03T07:41:48.078Z,30.50
2023-02-03T07:44:31.429Z,32.47
2023-02-03T07:47:20.355Z,31.45
2023-02-03T07:50:02.530Z,32.25
2023-02-03T07:52:51.088Z,33.10
2023-02-03T07:55:33.788Z,32.78
2023-02-03T07:58:25.052Z,33.85
2023-02-03T08:01:07.323Z,34.67
2023-02-03T08:03:56.164Z,34.65
2023-02-03T08:06:38.518Z,35.95
2023-02-03T08:09:27.031Z,35.38
2023-02-03T08:12:16.095Z,37.50
2023-02-03T08:14:58.349Z,38.33
2023-02-03T08:17:50.116Z,38.58
2023-02-03T08:20:39.528Z,35.22
2023-02-03T08:23:21.043Z,37.60
2023-02-03T08:26:10.550Z,43.00
2023-02-03T08:29:06.035Z,42.55
2023-02-03T08:31:55.473Z,40.28
2023-02-03T08:34:56.273Z,43.40
2023-02-03T08:37:38.575Z,39.90
2023-02-03T08:40:28.273Z,37.13
2023-02-03T08:43:10.387Z,37.88
2023-02-03T08:46:00.205Z,40.08
2023-02-03T08:48:42.553Z,37.10
2023-02-03T08:51:32.117Z,37.15
2023-02-03T08:54:14.505Z,38.20
2023-02-03T08:57:03.356Z,40.05
2023-02-03T08:59:50.670Z,41.17
2023-02-03T09:02:39.130Z,41.10
2023-02-03T09:05:21.514Z,38.92
2023-02-03T09:08:10.174Z,37.97
2023-02-03T09:10:52.492Z,39.45
2023-02-03T09:13:42.113Z,38.30
2023-02-03T09:16:27.701Z,38.30
2023-02-03T09:19:17.045Z,38.45
2023-02-03T09:21:59.532Z,37.22
2023-02-03T09:24:48.101Z,37.70
2023-02-03T09:27:30.459Z,35.63
2023-02-03T09:30:20.157Z,30.90
2023-02-03T09:33:03.397Z,30.17
2023-02-03T09:36:01.025Z,30.37
2023-02-03T09:38:43.470Z,28.45
2023-02-03T09:41:52.245Z,32.05
2023-02-03T09:45:01.343Z,24.17
2023-02-03T09:47:53.079Z,23.67
2023-02-03T09:50:40.351Z,25.55
2023-02-03T09:53:39.043Z,22.38
2023-02-03T09:56:37.394Z,19.73
2023-02-03T09:59:27.095Z,25.70
2023-02-03T10:02:34.164Z,23.85
2023-02-03T10:05:32.001Z,25.55
2023-02-03T10:08:32.674Z,25.98
2023-02-03T10:11:45.072Z,23.83
2023-02-03T10:14:27.450Z,20.98
2023-02-03T10:17:38.092Z,22.25
2023-02-03T10:20:44.013Z,20.85
2023-02-03T10:23:30.476Z,22.58
2023-02-03T10:26:35.014Z,22.48
2023-02-03T10:29:45.954Z,23.85
2023-02-03T10:32:36.174Z,25.08
2023-02-03T10:35:23.404Z,25.30
2023-02-03T10:38:21.099Z,25.33
2023-02-03T10:41:10.190Z,25.30
2023-02-03T10:43:56.031Z,26.63
2023-02-03T10:46:51.048Z,26.67
2023-02-03T10:49:41.586Z,27.20
2023-02-03T10:53:00.141Z,25.30
2023-02-03T10:55:42.466Z,24.15
2023-02-03T10:58:41.996Z,25.50
2023-02-03T11:01:35.213Z,26.15
2023-02-03T11:04:39.493Z,25.80
2023-02-03T11:07:38.115Z,26.15
2023-02-03T11:10:36.828Z,26.75
2023-02-03T11:13:27.116Z,25.15
2023-02-03T11:16:29.463Z,26.48
2023-02-03T11:19:25.066Z,26.38
2023-02-03T11:22:14.011Z,25.77
2023-02-03T11:25:03.431Z,24.05
2023-02-03T11:27:46.381Z,24.38
2023-02-03T11:30:36.460Z,23.73
2023-02-03T11:33:27.014Z,22.85
2023-02-03T11:36:19.691Z,23.42
2023-02-03T11:39:37.073Z,25.23
2023-02-03T11:42:27.856Z,24.38
2023-02-03T11:45:51.013Z,25.52
2023-02-03T11:49:04.166Z,26.75
2023-02-03T11:52:17.120Z,26.83
2023-02-03T11:55:22.915Z,25.02
2023-02-03T11:58:43.068Z,27.45
2023-02-03T12:02:08.362Z,27.55
2023-02-03T12:05:12.100Z,25.70
2023-02-03T12:08:13.379Z,27.63
2023-02-03T12:11:14.158Z,25.20
2023-02-03T12:14:30.047Z,26.17
2023-02-03T12:18:00.071Z,27.88
2023-02-03T12:21:27.517Z,26.85
2023-02-03T12:24:32.114Z,31.05
2023-02-03T12:27:43.955Z,31.80
2023-02-03T12:30:54.047Z,35.17
2023-02-03T12:33:57.371Z,32.38
2023-02-03T12:36:49.010Z,33.40
2023-02-03T12:39:40.446Z,38.22
2023-02-03T12:42:36.328Z,34.80
2023-02-03T12:45:38.017Z,39.63
2023-02-03T12:48:26.419Z,34.55
2023-02-03T12:51:24.089Z,42.10
2023-02-03T12:54:29.439Z,34.20
2023-02-03T12:57:24.019Z,37.53
2023-02-03T13:00:27.964Z,34.60
2023-02-03T13:03:38.130Z,35.70
2023-02-03T13:06:47.464Z,35.85
2023-02-03T13:09:57.096Z,34.13
2023-02-03T13:12:42.223Z,34.47
2023-02-03T13:15:48.034Z,34.95
2023-02-03T13:18:56.545Z,32.05
2023-02-03T13:21:45.124Z,32.13
2023-02-03T13:24:32.522Z,32.17
2023-02-03T13:27:58.188Z,33.08
2023-02-03T13:31:06.010Z,31.70
2023-02-03T13:34:27.100Z,34.03
2023-02-03T13:37:44.492Z,32.70
2023-02-03T13:41:04.544Z,34.45
2023-02-03T13:43:54.738Z,31.95
2023-02-03T13:46:44.971Z,29.98
2023-02-03T13:49:35.444Z,28.52
2023-02-03T13:52:46.988Z,27.95
2023-02-03T13:55:45.105Z,27.10
2023-02-03T13:58:33.825Z,28.25
2023-02-03T14:01:45.046Z,28.02
2023-02-03T14:04:36.804Z,27.35
2023-02-03T14:07:48.057Z,26.63
2023-02-03T14:10:37.415Z,26.02
2023-02-03T14:13:37.175Z,27.65
2023-02-03T14:16:33.438Z,28.25
2023-02-03T14:19:40.044Z,28.27
2023-02-03T14:22:29.120Z,28.10
2023-02-03T14:25:15.505Z,27.10
2023-02-03T14:28:14.098Z,26.17
2023-02-03T14:31:38.115Z,27.25
2023-02-03T14:34:36.032Z,26.30
2023-02-03T14:37:22.054Z,27.23
2023-02-03T14:40:24.866Z,25.98
2023-02-03T14:43:22.514Z,26.67
2023-02-03T14:46:52.179Z,25.70
2023-02-03T14:49:47.048Z,26.58
2023-02-03T14:52:53.618Z,25.80
2023-02-03T14:56:06.985Z,26.42
2023-02-03T14:59:04.142Z,27.08
2023-02-03T15:01:53.116Z,28.08
2023-02-03T15:04:42.109Z,27.15
2023-02-03T15:08:04.434Z,26.50
2023-02-03T15:10:53.968Z,26.38
2023-02-03T15:13:40.321Z,26.58
2023-02-03T15:16:32.095Z,28.60
2023-02-03T15:19:25.633Z,27.45
2023-02-03T15:22:33.976Z,28.90
2023-02-03T15:25:29.565Z,26.45
2023-02-03T15:28:28.098Z,29.05
2023-02-03T15:31:40.372Z,27.25
2023-02-03T15:34:51.093Z,27.60
2023-02-03T15:37:48.139Z,28.10
2023-02-03T15:40:35.448Z,28.80
2023-02-03T15:43:45.329Z,29.23
2023-02-03T15:46:48.070Z,28.40
2023-02-03T15:49:47.102Z,29.27
2023-02-03T15:52:33.371Z,31.23
2023-02-03T15:55:41.067Z,29.48
2023-02-03T15:58:32.417Z,28.95
2023-02-03T16:01:23.060Z,29.08
2023-02-03T16:04:08.142Z,28.88
2023-02-03T16:07:00.158Z,27.90
2023-02-03T16:09:48.432Z,28.50
2023-02-03T16:12:40.146Z,28.92
2023-02-03T16:15:31.624Z,27.73
2023-02-03T16:18:26.097Z,28.63
2023-02-03T16:21:08.507Z,29.25
2023-02-03T16:24:00.093Z,30.05
2023-02-03T16:26:43.470Z,32.20
2023-02-03T16:29:56.064Z,31.00
2023-02-03T16:33:04.006Z,30.98
2023-02-03T16:36:05.085Z,33.42
2023-02-03T16:39:10.173Z,31.70
2023-02-03T16:42:18.026Z,33.75
2023-02-03T16:45:25.893Z,33.30
2023-02-03T16:48:27.476Z,32.67
2023-02-03T16:51:23.367Z,34.47
2023-02-03T16:54:05.014Z,40.20
2023-02-03T16:56:55.535Z,38.08
2023-02-03T16:59:58.977Z,40.47
2023-02-03T17:02:50.125Z,41.67
2023-02-03T17:05:33.203Z,42.28
2023-02-03T17:08:23.515Z,47.67
2023-02-03T17:11:12.186Z,49.83
2023-02-03T17:14:01.504Z,48.65
2023-02-03T17:16:43.161Z,50.03
2023-02-03T17:19:33.369Z,51.60
2023-02-03T17:22:16.090Z,50.40
2023-02-03T17:25:06.445Z,51.88
2023-02-03T17:27:48.103Z,52.00
2023-02-03T17:30:44.130Z,53.30
2023-02-03T17:33:33.318Z,53.22
2023-02-03T17:36:19.129Z,54.03
2023-02-03T17:54:26.483Z,55.35
2023-02-03T17:57:17.836Z,54.47
2023-02-03T18:00:02.957Z,53.78
2023-02-03T18:02:58.481Z,55.33
2023-02-03T18:05:40.986Z,53.92
2023-02-03T18:08:30.411Z,53.70
2023-02-03T18:11:13.073Z,53.55
2023-02-03T18:14:02.318Z,55.78
2023-02-03T18:16:45.095Z,57.28
2023-02-03T18:19:33.353Z,56.90
2023-02-03T18:22:16.008Z,56.72
2023-02-03T18:25:05.454Z,57.63
2023-02-03T18:27:48.079Z,57.80
2023-02-03T18:30:44.949Z,58.83
2023-02-03T18:33:33.955Z,56.42
2023-02-03T18:36:17.894Z,57.55
2023-02-03T18:41:48.397Z,57.92
2023-02-03T18:44:37.012Z,58.47
2023-02-03T18:47:21.292Z,57.88
2023-02-03T18:50:10.054Z,57.00
2023-02-03T18:52:53.607Z,56.90
2023-02-03T18:55:43.504Z,59.70
2023-02-03T18:58:25.414Z,56.10
2023-02-03T19:01:14.022Z,55.03
2023-02-03T19:03:56.289Z,54.13
2023-02-03T19:06:45.062Z,54.85
2023-02-03T19:09:28.440Z,54.00
2023-02-03T19:12:16.949Z,53.53
2023-02-03T19:14:59.411Z,54.05
2023-02-03T19:17:48.088Z,55.33
2023-02-03T19:20:30.706Z,54.05
2023-02-03T19:23:22.032Z,54.10
2023-02-03T19:26:05.300Z,51.55
2023-02-03T19:28:54.076Z,49.55
2023-02-03T19:31:49.056Z,52.35
2023-02-03T19:34:38.032Z,52.47
2023-02-03T19:37:20.302Z,52.60
2023-02-03T19:40:08.996Z,55.30
2023-02-03T19:42:51.365Z,54.95
2023-02-03T19:45:40.077Z,54.53
2023-02-03T19:48:22.520Z,54.70
2023-02-03T19:51:11.004Z,55.60
2023-02-03T19:53:53.766Z,52.80
2023-02-03T19:56:43.023Z,55.10
2023-02-03T19:59:25.442Z,54.05
2023-02-03T20:02:14.750Z,55.92
2023-02-03T20:04:57.440Z,55.25
2023-02-03T20:07:45.953Z,55.60
2023-02-03T20:10:29.069Z,58.75
2023-02-03T20:13:19.273Z,60.07
2023-02-03T20:16:01.435Z,59.63
2023-02-03T20:18:50.002Z,61.38
2023-02-03T20:21:32.330Z,62.53
2023-02-03T20:24:21.978Z,66.97
2023-02-03T20:27:04.360Z,68.35
2023-02-03T20:29:53.011Z,67.68
2023-02-03T20:32:42.330Z,72.20
2023-02-03T20:35:26.562Z,71.05
2023-02-03T20:38:14.921Z,73.53
2023-02-03T20:41:05.061Z,74.82
2023-02-03T20:43:54.470Z,78.15
2023-02-03T20:46:36.094Z,77.18
2023-02-03T20:49:26.743Z,80.38
2023-02-03T20:52:24.990Z,81.93
2023-02-03T20:55:15.205Z,82.07
2023-02-03T20:58:05.012Z,77.97
2023-02-03T21:00:58.258Z,80.15
2023-02-03T21:03:59.047Z,79.60
2023-02-03T21:06:47.962Z,80.30
2023-02-03T21:09:31.369Z,81.65
2023-02-03T21:12:21.048Z,83.22
2023-02-03T21:15:03.376Z,81.85
2023-02-03T21:17:51.998Z,83.07
2023-02-03T21:20:37.334Z,82.90
2023-02-03T21:23:25.970Z,82.82
2023-02-03T21:26:08.280Z,82.50
2023-02-03T21:29:00.570Z,83.13
2023-02-03T21:31:55.921Z,85.65
2023-02-03T21:34:44.992Z,82.75
2023-02-03T21:37:54.948Z,87.70
2023-02-03T21:40:44.011Z,87.47
2023-02-03T21:43:26.484Z,82.75
2023-02-03T21:46:39.948Z,84.60
2023-02-03T21:49:23.436Z,78.77
2023-02-03T21:52:12.019Z,78.40
2023-02-03T21:54:54.819Z,78.60
2023-02-03T21:57:44.137Z,79.47
2023-02-03T22:00:49.551Z,75.65
2023-02-03T22:03:51.035Z,74.00
2023-02-03T22:06:50.234Z,74.35
2023-02-03T22:09:40.030Z,72.47
2023-02-03T22:12:22.311Z,73.38
2023-02-03T22:15:10.981Z,72.53
2023-02-03T22:17:53.338Z,71.97
2023-02-03T22:20:42.089Z,74.80
2023-02-03T22:23:24.272Z,73.30
2023-02-03T22:26:13.062Z,73.18
2023-02-03T22:28:55.318Z,75.68
2023-02-03T22:31:51.155Z,72.60
2023-02-03T22:34:39.286Z,74.20
2023-02-03T22:37:20.937Z,76.13
2023-02-03T22:40:11.208Z,75.30
2023-02-03T22:42:54.031Z,75.28
2023-02-03T22:45:42.336Z,79.40
2023-02-03T22:48:25.075Z,78.97
2023-02-03T22:51:14.228Z,79.35
2023-02-03T22:53:57.068Z,78.15
2023-02-03T22:56:45.267Z,80.60
2023-02-03T22:59:27.017Z,77.57
2023-02-03T23:02:09.225Z,79.95
2023-02-03T23:05:00.990Z,77.32
2023-02-03T23:07:50.205Z,78.28
2023-02-03T23:10:37.986Z,77.75
2023-02-03T23:13:26.376Z,79.55
2023-02-03T23:16:08.139Z,78.07
2023-02-03T23:18:56.213Z,80.82
2023-02-03T23:21:38.940Z,79.75
2023-02-03T23:24:27.246Z,81.03
2023-02-03T23:27:10.021Z,77.10
2023-02-03T23:29:58.305Z,79.13
2023-02-03T23:32:46.937Z,78.63
2023-02-03T23:35:48.963Z,78.13
2023-02-03T23:38:37.970Z,78.80
2023-02-03T23:41:20.285Z,82.32
2023-02-03T23:44:08.980Z,82.43
2023-02-03T23:46:58.005Z,80.47
2023-02-03T23:49:46.886Z,80.20
2023-02-03T23:52:43.016Z,79.30
2023-02-03T23:55:25.751Z,74.80
2023-02-03T23:58:14.917Z,79.60
